Time;durP1;ratioP1;P1;durP2;ratioP2;P2;SDS_P1;SDS_P2;PMS_P1;PMS_P2;Temp;Humidity;BMP_temperature;BMP_pressure;BME280_temperature;BME280_humidity;BME280_pressure;Samples;Min_cycle;Max_cycle;Signal;HPM_P1;HPM_P2
2023/04/23 00:00:14;;;;;;;35.92;27.35;;;7.30;99.90;;;;;;4967694;28;20097;-72
2023/04/23 00:02:43;;;;;;;37.90;27.88;;;7.30;99.90;;;;;;4946757;28;20047;-72
2023/04/23 00:05:11;;;;;;;39.63;26.52;;;7.30;99.90;;;;;;4959771;28;20034;-72
2023/04/23 00:07:37;;;;;;;41.50;28.42;;;7.30;99.90;;;;;;4950905;28;20094;-72
2023/04/23 00:10:04;;;;;;;41.58;28.85;;;7.30;99.90;;;;;;4964675;28;20043;-73
2023/04/23 00:12:31;;;;;;;47.15;30.65;;;7.30;99.90;;;;;;4960860;28;20039;-73
2023/04/23 00:14:57;;;;;;;41.92;29.25;;;7.30;99.90;;;;;;4981897;28;20042;-72
2023/04/23 00:17:23;;;;;;;40.58;28.55;;;7.30;99.90;;;;;;4976544;28;20191;-73
2023/04/23 00:19:50;;;;;;;39.80;27.70;;;7.30;99.90;;;;;;4967214;28;20093;-73
2023/04/23 00:22:16;;;;;;;42.85;30.13;;;7.30;99.90;;;;;;4956967;28;20050;-72
2023/04/23 00:24:42;;;;;;;45.88;29.90;;;7.30;99.90;;;;;;4961789;28;20727;-72
2023/04/23 00:27:08;;;;;;;43.95;29.38;;;7.30;99.90;;;;;;4945971;28;20090;-72
2023/04/23 00:29:34;;;;;;;48.63;30.48;;;7.30;99.90;;;;;;4963268;28;20045;-72
2023/04/23 00:32:00;;;;;;;55.90;32.20;;;7.30;99.90;;;;;;4964074;28;20551;-71
2023/04/23 00:34:26;;;;;;;55.40;32.22;;;7.30;99.90;;;;;;4980566;28;20116;-71
2023/04/23 00:36:52;;;;;;;48.95;31.27;;;7.30;99.90;;;;;;4967211;28;20046;-70
2023/04/23 00:39:17;;;;;;;47.20;31.95;;;7.30;99.90;;;;;;4967454;28;20053;-71
2023/04/23 00:41:43;;;;;;;46.00;31.15;;;7.30;99.90;;;;;;4965023;28;20051;-72
2023/04/23 00:44:09;;;;;;;60.28;33.78;;;7.30;99.90;;;;;;4970286;28;20035;-72
2023/04/23 00:46:36;;;;;;;48.47;31.17;;;7.30;99.90;;;;;;4967728;28;20560;-71
2023/04/23 00:49:02;;;;;;;51.20;32.08;;;7.30;99.90;;;;;;4967394;28;20035;-72
2023/04/23 00:51:28;;;;;;;45.67;31.10;;;7.30;99.90;;;;;;4961886;28;20035;-72
2023/04/23 00:53:55;;;;;;;50.33;32.15;;;7.30;99.90;;;;;;4961723;28;20048;-72
2023/04/23 00:56:22;;;;;;;50.80;33.42;;;7.20;99.90;;;;;;4967216;28;20039;-72
2023/04/23 00:58:49;;;;;;;53.47;33.88;;;7.20;99.90;;;;;;4970668;28;20521;-72
2023/04/23 01:01:19;;;;;;;59.28;35.83;;;7.20;99.90;;;;;;4984987;28;20402;-72
2023/04/23 01:03:47;;;;;;;58.75;35.60;;;7.20;99.90;;;;;;4983107;28;20042;-72
2023/04/23 01:06:16;;;;;;;58.00;36.47;;;7.20;99.90;;;;;;4971456;28;20042;-72
2023/04/23 01:08:43;;;;;;;66.47;38.53;;;7.20;99.90;;;;;;4968161;28;20086;-72
2023/04/23 01:11:13;;;;;;;65.97;40.33;;;7.20;99.90;;;;;;4969620;28;20038;-72
2023/04/23 01:13:38;;;;;;;68.10;40.53;;;7.20;99.90;;;;;;4969441;28;20121;-72
2023/04/23 01:16:04;;;;;;;77.35;43.40;;;7.20;99.90;;;;;;4973197;28;20129;-72
2023/04/23 01:18:30;;;;;;;94.25;45.90;;;7.20;99.90;;;;;;4954519;28;20165;-72
2023/04/23 01:20:56;;;;;;;83.35;45.25;;;7.20;99.90;;;;;;4968897;28;20034;-72
2023/04/23 01:23:21;;;;;;;85.72;47.72;;;7.20;99.90;;;;;;4972783;28;20490;-72
2023/04/23 01:25:47;;;;;;;90.07;48.58;;;7.20;99.90;;;;;;4968983;28;20070;-72
2023/04/23 01:28:13;;;;;;;104.45;53.20;;;7.20;99.90;;;;;;4970258;28;20073;-72
2023/04/23 01:30:42;;;;;;;143.02;57.22;;;7.20;99.90;;;;;;4974448;28;20045;-72
2023/04/23 01:33:09;;;;;;;118.85;58.10;;;7.30;99.90;;;;;;4970815;28;20065;-72
2023/04/23 01:35:36;;;;;;;123.75;59.38;;;7.30;99.90;;;;;;4974418;28;20053;-72
2023/04/23 01:38:02;;;;;;;133.13;62.85;;;7.30;99.90;;;;;;4973771;28;20057;-72
2023/04/23 01:40:28;;;;;;;111.93;58.60;;;7.30;99.90;;;;;;4967975;28;20066;-72
2023/04/23 01:42:55;;;;;;;110.15;58.50;;;7.40;99.90;;;;;;4971471;28;20124;-72
2023/04/23 01:45:21;;;;;;;113.20;60.17;;;7.40;99.90;;;;;;4970400;28;20053;-72
2023/04/23 01:47:47;;;;;;;121.68;61.75;;;7.40;99.90;;;;;;4970010;28;20046;-72
2023/04/23 01:50:14;;;;;;;134.77;65.10;;;7.40;99.90;;;;;;4968747;28;20145;-71
2023/04/23 01:52:40;;;;;;;131.27;65.10;;;7.40;99.90;;;;;;4967081;28;20042;-72
2023/04/23 01:55:08;;;;;;;129.25;66.65;;;7.40;99.90;;;;;;4971108;28;20070;-72
2023/04/23 01:57:34;;;;;;;137.00;67.80;;;7.30;99.90;;;;;;4957866;28;20046;-72
2023/04/23 02:00:07;;;;;;;130.25;65.70;;;7.30;99.90;;;;;;4969915;28;20410;-72
2023/04/23 02:02:36;;;;;;;136.32;65.68;;;7.30;99.90;;;;;;4970062;28;20348;-72
2023/04/23 02:05:06;;;;;;;110.93;61.88;;;7.30;99.90;;;;;;4970101;28;20045;-71
2023/04/23 02:07:33;;;;;;;110.05;60.70;;;7.30;99.90;;;;;;4976058;28;20045;-72
2023/04/23 02:09:59;;;;;;;148.75;63.97;;;7.30;99.90;;;;;;4964714;28;20034;-72
2023/04/23 02:12:25;;;;;;;111.05;62.38;;;7.20;99.90;;;;;;4967343;28;20030;-72
2023/04/23 02:14:52;;;;;;;123.68;65.10;;;7.30;99.90;;;;;;4972527;28;20033;-72
2023/04/23 02:17:20;;;;;;;109.28;60.83;;;7.20;99.90;;;;;;4961952;28;20039;-72
2023/04/23 02:19:46;;;;;;;120.03;63.00;;;7.20;99.90;;;;;;4963693;28;20176;-72
2023/04/23 02:22:12;;;;;;;116.45;63.00;;;7.20;99.90;;;;;;4966714;28;20329;-72
2023/04/23 02:24:37;;;;;;;135.18;65.22;;;7.10;99.90;;;;;;4972225;28;20074;-72
2023/04/23 02:27:03;;;;;;;132.82;64.22;;;7.10;99.90;;;;;;4949831;28;20101;-72
2023/04/23 02:29:29;;;;;;;117.55;64.30;;;7.10;99.90;;;;;;4969307;28;20137;-72
2023/04/23 02:31:55;;;;;;;132.20;66.78;;;7.00;99.90;;;;;;4982368;28;20042;-72
2023/04/23 02:34:21;;;;;;;129.10;65.50;;;7.00;99.90;;;;;;4972942;28;20458;-72
2023/04/23 02:36:46;;;;;;;127.80;65.60;;;7.00;99.90;;;;;;4971333;28;20073;-72
2023/04/23 02:39:12;;;;;;;136.90;65.68;;;7.00;99.90;;;;;;4965449;28;20384;-72
2023/04/23 02:41:38;;;;;;;128.07;65.35;;;6.90;99.90;;;;;;4968908;28;20042;-72
2023/04/23 02:44:03;;;;;;;111.32;63.97;;;6.90;99.90;;;;;;4971754;28;20069;-72
2023/04/23 02:46:30;;;;;;;124.80;67.47;;;6.90;99.90;;;;;;4964673;28;20146;-72
2023/04/23 02:48:56;;;;;;;134.20;66.88;;;6.80;99.90;;;;;;4966863;28;20058;-72
2023/04/23 02:51:22;;;;;;;154.13;70.20;;;6.80;99.90;;;;;;4972828;28;20395;-72
2023/04/23 02:53:47;;;;;;;162.70;68.50;;;6.80;99.90;;;;;;4963608;28;20428;-72
2023/04/23 02:56:13;;;;;;;146.23;68.90;;;6.80;99.90;;;;;;4969878;28;20494;-71
2023/04/23 02:58:39;;;;;;;154.48;67.32;;;6.80;99.90;;;;;;4970259;28;20278;-71
2023/04/23 03:01:05;;;;;;;132.98;67.53;;;6.80;99.90;;;;;;4970312;28;20042;-71
2023/04/23 03:03:31;;;;;;;141.15;65.72;;;6.70;99.90;;;;;;4969178;28;20061;-71
2023/04/23 03:05:59;;;;;;;169.25;69.68;;;6.70;99.90;;;;;;4966432;28;20524;-71
2023/04/23 03:08:24;;;;;;;132.85;66.20;;;6.70;99.90;;;;;;4968353;28;20069;-72
2023/04/23 03:10:50;;;;;;;206.98;72.22;;;6.70;99.90;;;;;;4968585;28;20030;-72
2023/04/23 03:13:16;;;;;;;314.67;79.05;;;6.70;99.90;;;;;;4963193;28;20774;-72
2023/04/23 03:15:42;;;;;;;345.88;76.03;;;6.80;99.90;;;;;;4968465;28;20363;-72
2023/04/23 03:18:07;;;;;;;455.92;81.78;;;6.80;99.90;;;;;;4953473;28;20486;-72
2023/04/23 03:20:34;;;;;;;891.25;104.82;;;6.80;99.90;;;;;;4973749;28;20046;-71
2023/04/23 03:23:00;;;;;;;605.58;89.75;;;6.90;99.90;;;;;;4963942;28;20050;-71
2023/04/23 03:25:26;;;;;;;955.00;108.45;;;6.90;99.90;;;;;;4965307;28;20050;-71
2023/04/23 03:27:52;;;;;;;600.28;92.13;;;7.00;99.90;;;;;;4967488;28;20042;-72
2023/04/23 03:30:19;;;;;;;671.25;84.22;;;7.00;99.90;;;;;;4967939;28;20478;-71
2023/04/23 03:32:45;;;;;;;935.13;111.15;;;7.00;99.90;;;;;;4960868;28;20050;-71
2023/04/23 03:35:11;;;;;;;430.65;80.20;;;7.10;99.90;;;;;;4959282;28;20506;-72
2023/04/23 03:37:36;;;;;;;498.67;78.07;;;7.10;99.90;;;;;;4966608;28;20047;-72
2023/04/23 03:40:06;;;;;;;476.40;86.30;;;7.10;99.90;;;;;;4961022;28;20130;-72
2023/04/23 03:42:32;;;;;;;433.17;86.20;;;7.20;99.90;;;;;;4960864;28;20074;-71
2023/04/23 03:44:59;;;;;;;851.53;112.30;;;7.20;99.90;;;;;;4975689;28;20047;-72
2023/04/23 03:47:25;;;;;;;418.67;82.03;;;7.30;99.90;;;;;;4965088;28;20078;-72
2023/04/23 03:49:51;;;;;;;437.40;79.60;;;7.30;99.90;;;;;;4944525;28;20506;-72
2023/04/23 03:52:17;;;;;;;623.80;97.13;;;7.30;99.90;;;;;;4944737;28;20035;-71
2023/04/23 03:54:43;;;;;;;514.42;87.65;;;7.30;99.90;;;;;;4960070;28;20042;-72
2023/04/23 03:57:11;;;;;;;813.55;100.85;;;7.30;99.90;;;;;;4965738;28;20066;-72
2023/04/23 03:59:37;;;;;;;1035.10;117.20;;;7.30;99.90;;;;;;4962509;28;20096;-72
2023/04/23 04:02:03;;;;;;;583.95;94.70;;;7.30;99.90;;;;;;4964613;28;20077;-72
2023/04/23 04:04:32;;;;;;;405.45;75.20;;;7.20;99.90;;;;;;4959137;28;20046;-72
2023/04/23 04:07:01;;;;;;;831.97;108.05;;;7.30;99.90;;;;;;4961896;28;20047;-72
2023/04/23 04:09:28;;;;;;;763.85;95.85;;;7.30;99.90;;;;;;4965664;28;20558;-71
2023/04/23 04:11:54;;;;;;;511.10;87.70;;;7.30;99.90;;;;;;4958845;28;20038;-72
2023/04/23 04:14:21;;;;;;;1022.67;119.55;;;7.30;99.90;;;;;;4979042;28;20070;-72
2023/04/23 04:16:47;;;;;;;587.50;95.68;;;7.40;99.90;;;;;;4962123;28;20050;-72
2023/04/23 04:19:12;;;;;;;695.88;101.78;;;7.40;99.90;;;;;;4952612;28;20043;-72
2023/04/23 04:21:38;;;;;;;400.40;91.28;;;7.40;99.90;;;;;;4965963;28;20164;-72
2023/04/23 04:24:04;;;;;;;472.52;97.60;;;7.40;99.90;;;;;;4962592;28;20105;-72
2023/04/23 04:26:36;;;;;;;496.52;99.45;;;7.50;99.90;;;;;;4963896;28;20133;-72
2023/04/23 04:29:02;;;;;;;526.47;103.45;;;7.50;99.90;;;;;;4966138;28;20118;-72
2023/04/23 04:31:28;;;;;;;335.90;90.07;;;7.50;99.90;;;;;;4965490;28;20051;-72
2023/04/23 04:33:54;;;;;;;490.90;100.00;;;7.60;99.90;;;;;;4983553;28;20046;-72
2023/04/23 04:36:20;;;;;;;280.15;86.35;;;7.60;99.90;;;;;;4969011;28;20511;-72
2023/04/23 04:38:46;;;;;;;426.33;94.25;;;7.60;99.90;;;;;;4970179;28;20046;-71
2023/04/23 04:41:12;;;;;;;264.08;85.43;;;7.70;99.90;;;;;;4962557;28;20173;-72
2023/04/23 04:43:40;;;;;;;481.90;101.60;;;7.70;99.90;;;;;;4972090;28;20533;-72
2023/04/23 04:46:06;;;;;;;407.73;95.45;;;7.70;99.90;;;;;;4968493;28;20042;-72
2023/04/23 04:48:31;;;;;;;451.83;96.75;;;7.70;99.90;;;;;;4983775;28;20046;-72
2023/04/23 04:50:58;;;;;;;353.63;92.65;;;7.80;99.90;;;;;;4969815;28;20510;-72
2023/04/23 04:53:23;;;;;;;314.63;91.28;;;7.80;99.90;;;;;;4971937;28;20097;-72
2023/04/23 04:55:49;;;;;;;451.17;99.25;;;7.80;99.90;;;;;;4956153;28;20030;-72
2023/04/23 04:58:15;;;;;;;280.08;90.07;;;7.90;99.90;;;;;;4970214;28;20113;-72
2023/04/23 05:00:42;;;;;;;310.92;91.78;;;7.90;99.90;;;;;;4976718;28;20450;-72
2023/04/23 05:03:07;;;;;;;322.88;92.28;;;7.90;99.90;;;;;;4970562;28;20034;-72
2023/04/23 05:05:33;;;;;;;235.43;86.50;;;7.90;99.90;;;;;;4969201;28;20141;-72
2023/04/23 05:08:01;;;;;;;263.58;88.72;;;8.00;99.90;;;;;;4970462;28;20042;-72
2023/04/23 05:10:27;;;;;;;255.88;85.80;;;8.00;99.90;;;;;;4974427;28;20043;-72
2023/04/23 05:12:55;;;;;;;240.20;88.22;;;8.00;99.90;;;;;;4965272;28;20062;-72
2023/04/23 05:15:21;;;;;;;211.63;84.75;;;8.00;99.90;;;;;;4970616;28;20034;-72
2023/04/23 05:17:49;;;;;;;197.40;81.20;;;8.10;99.90;;;;;;4966238;28;20465;-72
2023/04/23 05:20:14;;;;;;;222.90;82.38;;;8.10;99.90;;;;;;4967903;28;20398;-72
2023/04/23 05:22:41;;;;;;;197.95;82.22;;;8.10;99.90;;;;;;4969051;28;20042;-72
2023/04/23 05:25:08;;;;;;;201.63;80.57;;;8.20;99.90;;;;;;4971619;28;20081;-72
2023/04/23 05:27:34;;;;;;;180.48;79.38;;;8.20;99.90;;;;;;4986482;28;20132;-72
2023/04/23 05:30:02;;;;;;;185.88;78.30;;;8.20;99.90;;;;;;4971558;28;20097;-72
2023/04/23 05:32:28;;;;;;;233.45;82.75;;;8.20;99.90;;;;;;4971835;28;20074;-72
2023/04/23 05:34:54;;;;;;;170.32;76.35;;;8.30;99.90;;;;;;4969917;28;20042;-72
2023/04/23 05:37:20;;;;;;;197.35;80.35;;;8.30;99.90;;;;;;4968583;28;20038;-71
2023/04/23 05:39:46;;;;;;;200.45;80.63;;;8.30;99.90;;;;;;4969930;28;20426;-72
2023/04/23 05:42:12;;;;;;;157.55;75.85;;;8.40;99.90;;;;;;4970474;28;20041;-72
2023/04/23 05:44:40;;;;;;;166.98;75.18;;;8.40;99.90;;;;;;4987244;28;20120;-71
2023/04/23 05:47:07;;;;;;;144.15;72.50;;;8.50;99.90;;;;;;4967169;28;20038;-72
2023/04/23 05:49:33;;;;;;;168.10;74.75;;;8.50;99.90;;;;;;4985541;28;20097;-72
2023/04/23 05:52:01;;;;;;;153.38;72.97;;;8.50;99.90;;;;;;4971177;28;20038;-72
2023/04/23 05:54:27;;;;;;;145.18;71.30;;;8.50;99.90;;;;;;4965517;28;20086;-72
2023/04/23 05:56:53;;;;;;;146.10;70.35;;;8.60;99.90;;;;;;4973497;28;20046;-72
2023/04/23 05:59:18;;;;;;;153.18;73.28;;;8.60;99.90;;;;;;4972704;28;20045;-72
2023/04/23 06:01:45;;;;;;;132.00;70.32;;;8.80;99.90;;;;;;4973254;28;20046;-72
2023/04/23 06:04:12;;;;;;;146.20;71.38;;;8.90;99.90;;;;;;4963481;28;20495;-72
2023/04/23 06:06:38;;;;;;;137.88;70.28;;;9.10;99.90;;;;;;4970104;28;20129;-72
2023/04/23 06:09:03;;;;;;;127.10;71.18;;;9.30;99.90;;;;;;4969755;28;20082;-71
2023/04/23 06:11:31;;;;;;;117.10;68.13;;;9.40;99.90;;;;;;4975978;28;20062;-72
2023/04/23 06:13:57;;;;;;;123.13;68.45;;;9.50;99.90;;;;;;4987816;28;20094;-72
2023/04/23 06:16:23;;;;;;;115.13;67.68;;;9.60;99.90;;;;;;4964563;28;20054;-72
2023/04/23 06:18:49;;;;;;;98.25;60.88;;;9.80;99.90;;;;;;4969564;28;20093;-72
2023/04/23 06:21:15;;;;;;;97.70;63.03;;;9.80;99.90;;;;;;4956682;28;20034;-72
2023/04/23 06:23:41;;;;;;;92.57;60.60;;;9.90;99.90;;;;;;4968317;28;20463;-71
2023/04/23 06:26:07;;;;;;;87.13;57.88;;;10.00;99.90;;;;;;4976496;28;20713;-72
2023/04/23 06:28:33;;;;;;;83.07;57.92;;;10.00;99.90;;;;;;4973887;28;20081;-72
2023/04/23 06:30:58;;;;;;;84.95;57.70;;;10.00;99.90;;;;;;4972535;28;20069;-72
2023/04/23 06:33:24;;;;;;;82.78;56.72;;;10.10;99.90;;;;;;4960252;28;20496;-72
2023/04/23 06:35:50;;;;;;;80.88;56.47;;;10.20;99.90;;;;;;4966034;28;20070;-71
2023/04/23 06:38:17;;;;;;;78.30;56.05;;;10.30;99.90;;;;;;4976027;28;20056;-72
2023/04/23 06:40:44;;;;;;;73.72;53.95;;;10.50;99.90;;;;;;4961696;28;20050;-72
2023/04/23 06:43:10;;;;;;;72.60;51.75;;;10.70;99.90;;;;;;4972844;28;20206;-71
2023/04/23 06:45:36;;;;;;;68.90;51.38;;;10.80;99.90;;;;;;4971582;28;20038;-71
2023/04/23 06:48:01;;;;;;;68.60;51.10;;;10.90;99.90;;;;;;4972346;28;20486;-71
2023/04/23 06:50:27;;;;;;;67.38;48.85;;;11.10;99.90;;;;;;4974511;28;20047;-71
2023/04/23 06:52:53;;;;;;;63.28;49.25;;;11.10;99.90;;;;;;4988203;28;20042;-72
2023/04/23 06:55:20;;;;;;;60.33;46.47;;;11.30;99.90;;;;;;4973946;28;20034;-72
2023/04/23 06:57:46;;;;;;;58.25;45.53;;;11.50;99.90;;;;;;4982792;28;20045;-72
2023/04/23 07:00:12;;;;;;;54.95;43.53;;;11.60;99.90;;;;;;4973902;28;20042;-72
2023/04/23 07:02:38;;;;;;;51.80;42.90;;;11.70;99.90;;;;;;4984740;28;20127;-72
2023/04/23 07:05:04;;;;;;;49.97;41.42;;;11.80;99.90;;;;;;4961249;28;20126;-72
2023/04/23 07:07:30;;;;;;;50.88;41.65;;;11.90;99.90;;;;;;4974337;28;20042;-71
2023/04/23 07:09:55;;;;;;;49.50;41.08;;;11.90;99.90;;;;;;4958354;28;20045;-72
2023/04/23 07:12:21;;;;;;;53.75;41.90;;;12.00;99.90;;;;;;4984599;28;20185;-72
2023/04/23 07:14:47;;;;;;;47.10;39.55;;;12.10;99.90;;;;;;4967834;28;20502;-72
2023/04/23 07:17:13;;;;;;;46.90;38.85;;;12.30;99.90;;;;;;4967783;28;20038;-72
2023/04/23 07:19:39;;;;;;;69.80;56.55;;;12.50;99.90;;;;;;4972895;28;20498;-72
2023/04/23 07:22:05;;;;;;;47.92;39.40;;;12.60;99.90;;;;;;4965480;28;20053;-72
2023/04/23 07:24:30;;;;;;;41.85;37.15;;;12.70;99.90;;;;;;4966333;28;20063;-71
2023/04/23 07:26:56;;;;;;;45.70;38.58;;;12.80;99.90;;;;;;4972123;28;20047;-71
2023/04/23 07:29:22;;;;;;;42.83;36.15;;;12.90;99.90;;;;;;4969238;28;20042;-71
2023/04/23 07:31:47;;;;;;;41.72;37.20;;;13.10;99.90;;;;;;4965976;28;20042;-71
2023/04/23 07:34:13;;;;;;;41.83;35.80;;;13.20;99.90;;;;;;4968480;28;20050;-72
2023/04/23 07:36:39;;;;;;;39.55;35.15;;;13.40;99.90;;;;;;4970144;28;20054;-72
2023/04/23 07:39:05;;;;;;;40.85;36.20;;;13.60;99.90;;;;;;4971424;28;20042;-72
2023/04/23 07:41:32;;;;;;;39.25;35.08;;;13.90;99.90;;;;;;4963384;28;20499;-71
2023/04/23 07:43:58;;;;;;;37.10;33.05;;;14.20;99.90;;;;;;4970993;28;20037;-72
2023/04/23 07:46:23;;;;;;;39.83;35.47;;;14.80;99.90;;;;;;4967536;28;20058;-72
2023/04/23 07:48:49;;;;;;;38.38;34.17;;;15.50;99.90;;;;;;4972009;28;20047;-72
2023/04/23 07:51:15;;;;;;;36.83;32.90;;;16.20;99.90;;;;;;4961309;28;20034;-72
2023/04/23 07:53:41;;;;;;;34.13;30.67;;;16.50;99.90;;;;;;4968340;28;20044;-72
2023/04/23 07:56:06;;;;;;;36.70;30.92;;;16.50;99.90;;;;;;4970279;28;20038;-72
2023/04/23 07:58:32;;;;;;;32.88;29.55;;;16.50;99.90;;;;;;4964247;28;20061;-72
2023/04/23 08:00:58;;;;;;;31.77;28.48;;;16.70;99.90;;;;;;4961914;28;20068;-73
2023/04/23 08:03:24;;;;;;;30.67;27.48;;;16.90;99.90;;;;;;4960825;28;20042;-72
2023/04/23 08:05:49;;;;;;;31.80;28.50;;;17.20;99.90;;;;;;4979812;28;20454;-72
2023/04/23 08:08:15;;;;;;;29.92;26.90;;;17.50;99.90;;;;;;4963316;28;20030;-72
2023/04/23 08:10:41;;;;;;;29.55;26.58;;;17.80;99.90;;;;;;4962980;28;20054;-73
2023/04/23 08:13:07;;;;;;;31.98;28.67;;;18.10;99.90;;;;;;4968679;28;20187;-72
2023/04/23 08:15:33;;;;;;;36.47;32.63;;;18.50;99.90;;;;;;4965934;28;20332;-72
2023/04/23 08:17:58;;;;;;;28.13;25.42;;;18.90;99.90;;;;;;4965373;28;20038;-72
2023/04/23 08:20:24;;;;;;;27.42;24.75;;;19.40;99.90;;;;;;4964902;28;20046;-73
2023/04/23 08:22:52;;;;;;;26.75;24.20;;;19.70;99.90;;;;;;4965884;28;20107;-73
2023/04/23 08:25:19;;;;;;;26.58;23.92;;;19.90;99.90;;;;;;4968791;28;20147;-72
2023/04/23 08:27:45;;;;;;;25.50;23.05;;;20.00;99.90;;;;;;4968934;28;20077;-72
2023/04/23 08:30:11;;;;;;;24.25;21.85;;;20.30;99.90;;;;;;4972539;28;20033;-71
2023/04/23 08:32:39;;;;;;;23.15;21.02;;;20.50;99.90;;;;;;4981438;28;20506;-72
2023/04/23 08:35:06;;;;;;;21.05;19.05;;;20.80;99.90;;;;;;4974092;28;20192;-72
2023/04/23 08:37:33;;;;;;;19.92;18.02;;;20.90;99.90;;;;;;4989907;28;20038;-73
2023/04/23 08:40:00;;;;;;;20.15;18.25;;;20.80;99.90;;;;;;4965642;28;20034;-74
2023/04/23 08:43:00;;;;;;;20.48;18.38;;;20.90;99.90;;;;;;4986166;28;20201;-72
2023/04/23 08:45:27;;;;;;;17.80;16.17;;;20.90;99.90;;;;;;4984771;28;20054;-73
2023/04/23 08:47:58;;;;;;;16.63;14.93;;;20.90;99.90;;;;;;4960419;28;20043;-74
2023/04/23 08:50:24;;;;;;;17.65;16.05;;;21.00;99.90;;;;;;4981938;28;20050;-75
2023/04/23 08:52:52;;;;;;;16.10;14.45;;;21.10;99.90;;;;;;4951793;28;20034;-74
2023/04/23 08:55:20;;;;;;;16.05;14.50;;;21.30;99.90;;;;;;4969883;28;20042;-76
2023/04/23 08:57:47;;;;;;;16.30;14.65;;;21.20;99.90;;;;;;4979425;28;20058;-74
2023/04/23 09:00:15;;;;;;;15.65;14.25;;;21.30;99.90;;;;;;4965897;28;20558;-74
2023/04/23 09:02:42;;;;;;;15.80;14.20;;;21.30;99.90;;;;;;4970586;28;20061;-72
2023/04/23 09:05:08;;;;;;;15.00;13.60;;;21.50;99.90;;;;;;4968659;28;20501;-74
2023/04/23 09:07:35;;;;;;;14.60;13.18;;;21.70;99.90;;;;;;4960727;28;20402;-76
2023/04/23 09:10:05;;;;;;;14.40;13.00;;;21.80;99.90;;;;;;4969248;28;20047;-72
2023/04/23 09:12:34;;;;;;;13.73;12.38;;;21.90;99.90;;;;;;4987122;28;20044;-74
2023/04/23 09:15:00;;;;;;;14.82;13.45;;;21.60;99.90;;;;;;4982835;28;20169;-74
2023/04/23 09:17:28;;;;;;;15.75;14.18;;;21.40;99.90;;;;;;4966165;28;20129;-73
2023/04/23 09:19:54;;;;;;;13.15;11.90;;;20.60;99.90;;;;;;4974931;28;20069;-75
2023/04/23 09:22:46;;;;;;;13.93;12.52;;;20.50;99.90;;;;;;4972344;28;20402;-75
2023/04/23 09:25:20;;;;;;;12.57;10.20;;;20.20;99.90;;;;;;4985114;28;20042;-76
2023/04/23 09:27:46;;;;;;;13.32;10.68;;;20.20;99.90;;;;;;4979303;28;20438;-76
2023/04/23 09:30:13;;;;;;;12.25;9.50;;;20.00;99.90;;;;;;4969021;28;20054;-78
2023/04/23 09:32:44;;;;;;;15.63;9.75;;;19.60;99.90;;;;;;4971188;28;20062;-81
2023/04/23 09:35:13;;;;;;;12.27;9.80;;;19.30;99.90;;;;;;4974023;28;20367;-74
2023/04/23 09:37:47;;;;;;;13.85;9.73;;;19.20;99.90;;;;;;4968690;28;20050;-76
2023/04/23 09:40:15;;;;;;;10.65;8.77;;;19.10;99.90;;;;;;4957977;28;20100;-72
2023/04/23 09:42:49;;;;;;;11.32;9.00;;;19.00;99.90;;;;;;4967944;28;20049;-76
2023/04/23 09:45:15;;;;;;;13.20;9.23;;;19.20;99.90;;;;;;4968917;28;20065;-74
2023/04/23 09:47:52;;;;;;;12.27;9.68;;;19.50;99.90;;;;;;4956808;28;20054;-75
2023/04/23 09:50:18;;;;;;;10.40;6.95;;;19.50;99.90;;;;;;4961027;28;20046;-73
2023/04/23 09:52:44;;;;;;;10.27;6.72;;;19.30;99.90;;;;;;4987436;28;20073;-77
2023/04/23 09:55:10;;;;;;;8.65;5.80;;;19.10;99.90;;;;;;4968261;28;20161;-75
2023/04/23 09:57:46;;;;;;;10.45;5.00;;;19.10;99.90;;;;;;4974014;28;20084;-74
2023/04/23 10:00:17;;;;;;;8.13;5.03;;;19.30;99.90;;;;;;4990359;28;20042;-74
2023/04/23 10:02:48;;;;;;;9.07;5.32;;;19.40;99.90;;;;;;4986552;28;20038;-73
2023/04/23 10:05:18;;;;;;;11.25;5.07;;;19.70;99.90;;;;;;4970456;28;20039;-77
2023/04/23 10:07:45;;;;;;;9.35;4.80;;;20.20;99.90;;;;;;4973873;28;20074;-74
2023/04/23 10:10:12;;;;;;;9.38;4.75;;;20.80;99.90;;;;;;4973766;28;20046;-73
2023/04/23 10:12:38;;;;;;;8.60;4.20;;;21.20;99.90;;;;;;4970490;28;20070;-72
2023/04/23 10:15:06;;;;;;;7.35;4.55;;;21.40;99.90;;;;;;4968720;28;20053;-74
2023/04/23 10:17:33;;;;;;;5.82;4.70;;;21.70;99.90;;;;;;4967508;28;20042;-75
2023/04/23 10:20:00;;;;;;;8.75;5.18;;;22.00;99.90;;;;;;4977161;28;20074;-76
2023/04/23 10:22:28;;;;;;;7.80;4.40;;;22.10;99.90;;;;;;4958949;28;20203;-75
2023/04/23 10:24:59;;;;;;;7.07;4.13;;;22.40;99.90;;;;;;4971473;28;20042;-73
2023/04/23 10:27:29;;;;;;;8.27;3.85;;;22.70;99.90;;;;;;4975434;28;20050;-77
2023/04/23 10:29:57;;;;;;;7.40;5.03;;;22.90;99.90;;;;;;4962449;28;20385;-77
2023/04/23 10:32:24;;;;;;;6.63;4.43;;;22.90;99.60;;;;;;4960809;28;20106;-78
2023/04/23 10:34:50;;;;;;;6.07;3.80;;;22.90;99.90;;;;;;4984964;28;20054;-76
2023/04/23 10:37:20;;;;;;;7.03;4.30;;;22.90;99.70;;;;;;4985592;28;20039;-74
2023/04/23 10:39:52;;;;;;;5.20;3.80;;;22.80;99.60;;;;;;4976387;28;20042;-76
2023/04/23 10:42:18;;;;;;;5.53;3.72;;;22.70;99.80;;;;;;4969466;28;20042;-74
2023/04/23 10:44:44;;;;;;;6.63;2.78;;;22.70;99.30;;;;;;4967969;28;20073;-73
2023/04/23 10:47:18;;;;;;;6.68;3.58;;;22.80;98.70;;;;;;4971402;28;20077;-75
2023/04/23 10:49:44;;;;;;;6.30;3.45;;;22.70;96.50;;;;;;4975499;28;20092;-74
2023/04/23 10:52:14;;;;;;;6.53;3.40;;;22.50;96.70;;;;;;4970639;28;20042;-74
2023/04/23 10:54:46;;;;;;;6.65;2.90;;;22.60;96.60;;;;;;4965280;28;20386;-75
2023/04/23 10:57:12;;;;;;;5.95;3.15;;;22.70;96.20;;;;;;4969310;28;20757;-71
2023/04/23 10:59:40;;;;;;;6.30;3.15;;;22.40;95.90;;;;;;4967954;28;20077;-72
2023/04/23 11:02:11;;;;;;;5.85;2.80;;;22.10;96.20;;;;;;4967370;28;20049;-70
2023/04/23 11:05:00;;;;;;;5.15;2.42;;;22.10;96.20;;;;;;4951957;28;20443;-72
2023/04/23 11:07:32;;;;;;;5.80;2.17;;;22.20;95.50;;;;;;4973850;28;20138;-71
2023/04/23 11:10:09;;;;;;;4.97;1.70;;;22.10;93.80;;;;;;4983247;28;20061;-74
2023/04/23 11:12:35;;;;;;;5.07;1.92;;;21.90;92.90;;;;;;4961259;28;20046;-70
2023/04/23 11:15:15;;;;;;;4.80;2.05;;;21.60;92.40;;;;;;4958396;28;20501;-71
2023/04/23 11:17:43;;;;;;;5.47;2.17;;;21.40;91.90;;;;;;4970558;28;20038;-79
2023/04/23 11:20:17;;;;;;;5.57;2.10;;;20.80;92.20;;;;;;4967021;28;20082;-77
2023/04/23 11:22:50;;;;;;;2.78;1.58;;;20.60;93.40;;;;;;4970947;28;20050;-79
2023/04/23 11:25:25;;;;;;;8.95;1.80;;;20.90;93.70;;;;;;4973402;28;20112;-78
2023/04/23 11:27:53;;;;;;;5.53;1.73;;;21.40;93.50;;;;;;4969178;28;20042;-77
2023/04/23 11:30:21;;;;;;;5.90;2.08;;;21.80;93.50;;;;;;4949119;28;20138;-77
2023/04/23 11:32:52;;;;;;;4.88;1.83;;;21.80;92.30;;;;;;4966930;28;20030;-78
2023/04/23 11:35:23;;;;;;;4.50;2.00;;;21.40;91.70;;;;;;4970716;28;20556;-77
2023/04/23 11:37:49;;;;;;;6.10;1.80;;;21.10;92.20;;;;;;4955404;28;20042;-77
2023/04/23 11:40:19;;;;;;;4.30;1.70;;;21.20;93.40;;;;;;4972120;28;20042;-77
2023/04/23 11:42:53;;;;;;;4.70;1.65;;;21.60;91.50;;;;;;4971425;28;20500;-77
2023/04/23 11:45:21;;;;;;;6.80;1.75;;;22.00;90.90;;;;;;4958880;28;20042;-77
2023/04/23 11:47:49;;;;;;;5.15;1.83;;;22.50;90.90;;;;;;4958224;28;20038;-77
2023/04/23 11:50:41;;;;;;;3.70;1.52;;;22.70;90.50;;;;;;4970027;28;20056;-78
2023/04/23 11:53:09;;;;;;;4.80;1.67;;;22.30;89.00;;;;;;4980919;28;20042;-78
2023/04/23 11:55:35;;;;;;;4.30;1.55;;;22.00;90.00;;;;;;4953851;28;20043;-77
2023/04/23 11:58:01;;;;;;;4.40;1.50;;;22.10;90.40;;;;;;4973747;28;20064;-77
2023/04/23 12:00:27;;;;;;;5.70;1.80;;;22.10;89.00;;;;;;4965886;28;20179;-77
2023/04/23 12:02:57;;;;;;;5.55;1.83;;;21.90;88.80;;;;;;4968909;28;20046;-76
2023/04/23 12:05:27;;;;;;;5.18;1.85;;;21.70;90.90;;;;;;4954086;28;20046;-78
2023/04/23 12:07:53;;;;;;;4.03;1.40;;;22.10;91.40;;;;;;4950218;28;20049;-78
2023/04/23 12:10:23;;;;;;;7.55;1.90;;;22.30;88.00;;;;;;4958086;28;20089;-76
2023/04/23 12:12:50;;;;;;;5.53;1.55;;;21.90;87.00;;;;;;4972968;28;20502;-77
2023/04/23 12:15:16;;;;;;;8.45;2.05;;;21.40;86.70;;;;;;4967584;28;20042;-77
2023/04/23 12:17:47;;;;;;;5.55;1.80;;;21.10;87.40;;;;;;4956335;28;20121;-77
2023/04/23 12:20:19;;;;;;;4.20;1.63;;;21.10;88.90;;;;;;4954282;28;20046;-77
2023/04/23 12:22:46;;;;;;;4.53;1.80;;;21.30;90.00;;;;;;4957949;28;20088;-77
2023/04/23 12:25:11;;;;;;;4.75;1.70;;;21.40;89.70;;;;;;4970358;28;20062;-76
2023/04/23 12:27:43;;;;;;;6.75;2.13;;;21.40;88.80;;;;;;4970198;28;20070;-76
2023/04/23 12:30:10;;;;;;;6.55;1.88;;;21.40;89.20;;;;;;4972072;28;20042;-77
2023/04/23 12:32:37;;;;;;;4.32;1.60;;;21.50;89.50;;;;;;4965304;28;20097;-76